createdAt,value
2018-12-09T00:01:09.617Z,98775.38
2018-12-09T00:03:37.433Z,98770.77
2018-12-09T00:06:05.325Z,98760.98
2018-12-09T00:08:32.939Z,98748.05
2018-12-09T00:11:00.764Z,98741.41
2018-12-09T00:13:28.651Z,98736.81
2018-12-09T00:15:56.199Z,98733.97
2018-12-09T00:18:23.765Z,98728.55
2018-12-09T00:20:51.405Z,98713.98
2018-12-09T00:23:19.278Z,98704.94
2018-12-09T00:25:46.865Z,98701.43
2018-12-09T00:28:14.475Z,98697.45
2018-12-09T00:30:42.070Z,98691.65
2018-12-09T00:33:09.679Z,98682.30
2018-12-09T00:35:37.222Z,98679.41
2018-12-09T00:38:04.802Z,98668.93
2018-12-09T00:40:32.820Z,98663.31
2018-12-09T00:43:00.351Z,98657.40
2018-12-09T00:45:27.915Z,98652.09
2018-12-09T00:47:55.514Z,98638.45
2018-12-09T00:50:23.073Z,98630.91
2018-12-09T00:52:50.668Z,98626.23
2018-12-09T00:55:18.244Z,98624.91
2018-12-09T00:57:45.833Z,98623.77
2018-12-09T01:00:13.561Z,98614.22
2018-12-09T01:02:42.953Z,98611.56
2018-12-09T01:05:10.961Z,98600.05
2018-12-09T01:07:38.866Z,98588.31
2018-12-09T01:10:06.701Z,98575.37
2018-12-09T01:12:34.245Z,98560.18
2018-12-09T01:15:01.822Z,98544.52
2018-12-09T01:17:29.436Z,98560.59
2018-12-09T01:19:57.286Z,98534.21
2018-12-09T01:22:25.143Z,98532.89
2018-12-09T01:24:52.754Z,98516.25
2018-12-09T01:27:20.587Z,98513.59
2018-12-09T01:29:48.554Z,98513.20
2018-12-09T01:32:16.156Z,98516.16
2018-12-09T01:34:43.789Z,98496.97
2018-12-09T01:37:11.362Z,98494.11
2018-12-09T01:39:38.939Z,98497.97
2018-12-09T01:42:06.516Z,98488.69
2018-12-09T01:44:34.135Z,98482.80
2018-12-09T01:47:01.730Z,98479.41
2018-12-09T01:49:29.304Z,98473.09
2018-12-09T01:51:56.900Z,98464.42
2018-12-09T01:54:24.472Z,98458.72
2018-12-09T01:56:52.059Z,98463.20
2018-12-09T01:59:19.894Z,98454.00
2018-12-09T02:01:47.484Z,98447.06
2018-12-09T02:04:15.166Z,98444.95
2018-12-09T02:06:42.740Z,98435.88
2018-12-09T02:09:10.341Z,98437.52
2018-12-09T02:11:38.206Z,98432.48
2018-12-09T02:14:05.779Z,98419.54
2018-12-09T02:16:33.797Z,98419.54
2018-12-09T02:19:16.483Z,98421.27
2018-12-09T02:21:44.500Z,98418.38
2018-12-09T02:24:12.386Z,98414.75
2018-12-09T02:26:40.005Z,98407.57
2018-12-09T02:29:07.822Z,98402.47
2018-12-09T02:31:35.690Z,98399.62
2018-12-09T02:34:03.265Z,98391.05
2018-12-09T02:36:30.924Z,98382.66
2018-12-09T02:38:58.573Z,98382.24
2018-12-09T02:41:26.189Z,98379.90
2018-12-09T02:43:53.796Z,98373.78
2018-12-09T02:46:21.431Z,98367.76
2018-12-09T02:48:49.789Z,98362.97
2018-12-09T02:51:17.440Z,98358.24
2018-12-09T02:53:45.055Z,98354.36
2018-12-09T02:56:12.625Z,98351.05
2018-12-09T02:58:40.293Z,98338.09
2018-12-09T03:01:07.918Z,98334.94
2018-12-09T03:03:35.508Z,98331.36
2018-12-09T03:06:03.226Z,98335.39
2018-12-09T03:08:30.899Z,98334.67
2018-12-09T03:10:58.470Z,98331.21
2018-12-09T03:13:26.098Z,98319.06
2018-12-09T03:15:53.687Z,98315.84
2018-12-09T03:18:21.308Z,98319.61
2018-12-09T03:20:48.917Z,98321.45
2018-12-09T03:23:16.468Z,98312.83
2018-12-09T03:25:44.026Z,98317.11
2018-12-09T03:28:11.587Z,98308.34
2018-12-09T03:30:39.169Z,98307.63
2018-12-09T03:33:06.764Z,98307.41
2018-12-09T03:35:34.364Z,98299.51
2018-12-09T03:38:02.044Z,98302.10
2018-12-09T03:40:29.595Z,98294.20
2018-12-09T03:42:57.184Z,98293.84
2018-12-09T03:45:24.844Z,98289.27
2018-12-09T03:47:52.408Z,98291.61
2018-12-09T03:50:19.974Z,98288.95
2018-12-09T03:52:47.583Z,98295.89
2018-12-09T03:55:15.189Z,98286.55
2018-12-09T03:57:42.789Z,98287.88
2018-12-09T04:00:10.631Z,98281.75
2018-12-09T04:02:38.207Z,98281.45
2018-12-09T04:05:05.914Z,98287.99
2018-12-09T04:07:33.818Z,98285.13
2018-12-09T04:10:01.399Z,98281.00
2018-12-09T04:12:28.967Z,98279.97
2018-12-09T04:14:56.575Z,98279.55
2018-12-09T04:17:24.139Z,98278.02
2018-12-09T04:19:51.723Z,98276.45
2018-12-09T04:22:19.311Z,98271.44
2018-12-09T04:24:46.828Z,98272.64
2018-12-09T04:27:14.720Z,98269.53
2018-12-09T04:29:42.308Z,98264.83
2018-12-09T04:32:09.894Z,98268.08
2018-12-09T04:34:37.505Z,98266.76
2018-12-09T04:37:05.230Z,98263.89
2018-12-09T04:39:32.793Z,98268.75
2018-12-09T04:42:00.369Z,98268.62
2018-12-09T04:44:27.921Z,98270.76
2018-12-09T04:46:55.856Z,98252.96
2018-12-09T04:49:23.431Z,98266.02
2018-12-09T04:51:53.825Z,98267.65
2018-12-09T04:54:21.420Z,98267.28
2018-12-09T04:56:49.101Z,98264.56
2018-12-09T04:59:18.895Z,98270.17
2018-12-09T05:01:47.026Z,98275.19
2018-12-09T05:04:14.772Z,98287.19
2018-12-09T05:06:42.412Z,98272.97
2018-12-09T05:09:10.094Z,98269.86
2018-12-09T05:11:37.647Z,98276.23
2018-12-09T05:14:05.555Z,98272.97
2018-12-09T05:16:33.162Z,98283.89
2018-12-09T05:19:00.695Z,98294.86
2018-12-09T05:21:28.500Z,98292.00
2018-12-09T05:23:56.064Z,98294.80
2018-12-09T05:26:23.969Z,98295.39
2018-12-09T05:28:51.574Z,98298.50
2018-12-09T05:31:19.508Z,98298.78
2018-12-09T05:33:47.091Z,98304.38
2018-12-09T05:36:14.651Z,98300.58
2018-12-09T05:38:43.102Z,98305.20
2018-12-09T05:41:10.719Z,98312.05
2018-12-09T05:43:38.286Z,98317.60
2018-12-09T05:46:05.870Z,98313.32
2018-12-09T05:48:33.423Z,98314.70
2018-12-09T05:51:01.507Z,98313.75
2018-12-09T05:53:29.131Z,98326.51
2018-12-09T05:55:56.693Z,98318.55
2018-12-09T05:58:26.290Z,98314.12
2018-12-09T06:00:53.894Z,98323.71
2018-12-09T06:03:22.192Z,98326.15
2018-12-09T06:05:49.933Z,98316.10
2018-12-09T06:08:17.648Z,98338.45
2018-12-09T06:10:45.389Z,98325.41
2018-12-09T06:13:12.983Z,98327.47
2018-12-09T06:15:41.229Z,98331.15
2018-12-09T06:18:08.815Z,98336.33
2018-12-09T06:20:36.357Z,98333.02
2018-12-09T06:23:04.365Z,98351.88
2018-12-09T06:25:32.002Z,98349.67
2018-12-09T06:28:00.011Z,98353.78
2018-12-09T06:30:28.051Z,98357.26
2018-12-09T06:32:55.610Z,98365.25
2018-12-09T06:35:23.161Z,98367.63
2018-12-09T06:37:50.830Z,98370.55
2018-12-09T06:40:18.934Z,98377.00
2018-12-09T06:42:46.550Z,98379.35
2018-12-09T06:45:14.136Z,98385.92
2018-12-09T06:47:41.704Z,98386.44
2018-12-09T06:50:09.445Z,98394.70
2018-12-09T06:52:37.011Z,98398.02
2018-12-09T06:55:05.331Z,98400.52
2018-12-09T06:57:33.239Z,98404.61
2018-12-09T07:00:00.909Z,98406.03
2018-12-09T07:02:28.570Z,98414.39
2018-12-09T07:04:56.137Z,98425.94
2018-12-09T07:07:24.101Z,98422.38
2018-12-09T07:09:51.734Z,98434.11
2018-12-09T07:12:19.359Z,98443.79
2018-12-09T07:14:47.314Z,98440.53
2018-12-09T07:17:14.963Z,98449.42
2018-12-09T07:19:43.165Z,98462.01
2018-12-09T07:22:10.799Z,98457.72
2018-12-09T07:24:38.375Z,98469.45
2018-12-09T07:27:06.027Z,98473.95
2018-12-09T07:29:33.639Z,98484.59
2018-12-09T07:32:01.672Z,98486.70
2018-12-09T07:34:29.299Z,98487.72
2018-12-09T07:36:56.911Z,98495.48
2018-12-09T07:39:24.867Z,98498.64
2018-12-09T07:41:52.490Z,98501.70
2018-12-09T07:44:20.071Z,98505.23
2018-12-09T07:46:48.044Z,98510.75
2018-12-09T07:49:15.811Z,98516.87
2018-12-09T07:51:43.389Z,98511.86
2018-12-09T07:54:11.336Z,98517.98
2018-12-09T07:56:38.898Z,98519.66
2018-12-09T07:59:08.505Z,98520.69
2018-12-09T08:01:36.078Z,98530.27
2018-12-09T08:04:03.731Z,98532.63
2018-12-09T08:06:31.399Z,98538.09
2018-12-09T08:08:58.958Z,98536.47
2018-12-09T08:11:26.731Z,98547.28
2018-12-09T08:13:54.379Z,98554.63
2018-12-09T08:16:21.972Z,98565.34
2018-12-09T08:18:49.537Z,98561.19
2018-12-09T08:21:17.666Z,98566.09
2018-12-09T08:23:45.352Z,98575.71
2018-12-09T08:26:12.928Z,98565.89
2018-12-09T08:28:40.589Z,98576.09
2018-12-09T08:31:08.376Z,98574.22
2018-12-09T08:33:35.975Z,98582.89
2018-12-09T08:36:03.693Z,98596.91
2018-12-09T08:38:31.533Z,98592.09
2018-12-09T08:40:59.142Z,98594.16
2018-12-09T08:43:26.720Z,98601.52
2018-12-09T08:45:54.317Z,98604.64
2018-12-09T08:48:21.907Z,98613.62
2018-12-09T08:50:49.465Z,98614.81
2018-12-09T08:53:17.001Z,98620.13
2018-12-09T08:55:44.966Z,98630.33
2018-12-09T08:58:12.543Z,98624.64
2018-12-09T09:00:40.187Z,98640.02
2018-12-09T09:03:07.761Z,98645.95
2018-12-09T09:05:35.526Z,98636.69
2018-12-09T09:08:03.216Z,98653.30
2018-12-09T09:10:31.437Z,98648.70
2018-12-09T09:12:59.031Z,98659.59
2018-12-09T09:15:26.646Z,98658.14
2018-12-09T09:17:54.184Z,98660.39
2018-12-09T09:20:21.902Z,98663.05
2018-12-09T09:22:49.630Z,98655.90
2018-12-09T09:25:17.215Z,98663.15
2018-12-09T09:27:44.792Z,98681.73
2018-12-09T09:30:12.457Z,98671.28
2018-12-09T09:32:40.335Z,98674.34
2018-12-09T09:35:07.946Z,98682.16
2018-12-09T09:37:35.761Z,98686.34
2018-12-09T09:40:04.483Z,98681.34
2018-12-09T09:42:32.213Z,98687.47
2018-12-09T09:44:59.804Z,98685.42
2018-12-09T09:47:27.766Z,98681.95
2018-12-09T09:49:55.431Z,98695.95
2018-12-09T09:52:23.032Z,98692.85
2018-12-09T09:54:50.625Z,98701.30
2018-12-09T09:57:18.218Z,98710.29
2018-12-09T09:59:45.829Z,98712.02
2018-12-09T10:02:13.420Z,98705.52
2018-12-09T10:04:41.043Z,98710.29
2018-12-09T10:07:08.723Z,98703.04
2018-12-09T10:09:36.413Z,98713.43
2018-12-09T10:12:03.986Z,98718.41
2018-12-09T10:14:31.708Z,98722.11
2018-12-09T10:16:59.324Z,98725.30
2018-12-09T10:19:26.891Z,98719.61
2018-12-09T10:21:54.451Z,98716.70
2018-12-09T10:24:22.847Z,98722.89
2018-12-09T10:26:50.435Z,98726.16
2018-12-09T10:29:18.062Z,98724.22
2018-12-09T10:31:45.691Z,98723.52
2018-12-09T10:34:13.217Z,98720.03
2018-12-09T10:36:40.843Z,98720.72
2018-12-09T10:39:08.551Z,98715.37
2018-12-09T10:41:36.135Z,98734.98
2018-12-09T10:44:03.746Z,98717.51
2018-12-09T10:46:31.274Z,98727.72
2018-12-09T10:48:58.875Z,98735.38
2018-12-09T10:51:26.909Z,98738.70
2018-12-09T10:53:54.646Z,98733.95
2018-12-09T10:56:22.227Z,98732.88
2018-12-09T10:58:49.986Z,98739.80
2018-12-09T11:01:23.694Z,98737.00
2018-12-09T11:03:52.345Z,98735.84
2018-12-09T11:06:21.281Z,98734.75
2018-12-09T11:08:48.876Z,98736.36
2018-12-09T11:11:16.464Z,98738.47
2018-12-09T11:13:44.058Z,98748.75
2018-12-09T11:16:11.645Z,98744.84
2018-12-09T11:18:39.263Z,98746.09
2018-12-09T11:21:06.849Z,98752.26
2018-12-09T11:23:34.402Z,98751.82
2018-12-09T11:26:01.969Z,98748.27
2018-12-09T11:28:29.699Z,98749.30
2018-12-09T11:30:57.314Z,98747.73
2018-12-09T11:33:24.904Z,98750.66
2018-12-09T11:35:52.555Z,98751.47
2018-12-09T11:38:20.113Z,98742.28
2018-12-09T11:40:47.752Z,98741.56
2018-12-09T11:43:15.360Z,98734.20
2018-12-09T11:45:42.926Z,98745.17
2018-12-09T11:48:10.496Z,98747.78
2018-12-09T11:50:38.193Z,98742.61
2018-12-09T11:53:05.847Z,98751.23
2018-12-09T11:55:33.405Z,98748.62
2018-12-09T11:58:01.629Z,98753.22
2018-12-09T12:00:29.289Z,98758.53
2018-12-09T12:02:56.837Z,98748.31
2018-12-09T12:05:25.240Z,98755.06
2018-12-09T12:07:52.844Z,98748.86
2018-12-09T12:10:20.465Z,98754.92
2018-12-09T12:12:48.246Z,98761.55
2018-12-09T12:15:15.872Z,98762.34
2018-12-09T12:17:43.468Z,98757.75
2018-12-09T12:20:11.087Z,98765.10
2018-12-09T12:22:38.747Z,98767.98
2018-12-09T12:25:06.514Z,98766.97
2018-12-09T12:27:34.132Z,98770.85
2018-12-09T12:30:01.705Z,98772.48
2018-12-09T12:32:29.415Z,98784.54
2018-12-09T12:34:57.063Z,98779.63
2018-12-09T12:37:24.718Z,98783.62
2018-12-09T12:39:52.349Z,98786.89
2018-12-09T12:42:19.891Z,98788.14
2018-12-09T12:44:47.493Z,98782.19
2018-12-09T12:47:15.088Z,98788.42
2018-12-09T12:49:42.637Z,98788.63
2018-12-09T12:52:10.261Z,98787.50
2018-12-09T12:54:38.126Z,98791.48
2018-12-09T12:57:05.711Z,98791.89
2018-12-09T12:59:33.364Z,98799.33
2018-12-09T13:02:00.947Z,98792.89
2018-12-09T13:04:28.574Z,98793.73
2018-12-09T13:06:56.453Z,98806.61
2018-12-09T13:09:24.017Z,98805.17
2018-12-09T13:11:51.743Z,98806.42
2018-12-09T13:14:19.325Z,98807.67
2018-12-09T13:16:46.950Z,98813.62
2018-12-09T13:19:14.534Z,98824.11
2018-12-09T13:21:42.213Z,98819.95
2018-12-09T13:24:10.074Z,98825.66
2018-12-09T13:26:37.670Z,98821.37
2018-12-09T13:29:05.316Z,98830.66
2018-12-09T13:31:33.104Z,98835.89
2018-12-09T13:34:00.969Z,98840.27
2018-12-09T13:36:28.571Z,98842.83
2018-12-09T13:38:56.131Z,98842.20
2018-12-09T13:41:23.751Z,98851.88
2018-12-09T13:43:51.840Z,98852.30
2018-12-09T13:46:19.454Z,98857.62
2018-12-09T13:48:47.061Z,98854.66
2018-12-09T13:51:14.702Z,98858.76
2018-12-09T13:53:42.243Z,98863.02
2018-12-09T13:56:09.868Z,98871.61
2018-12-09T13:58:37.583Z,98869.97
2018-12-09T14:01:05.210Z,98878.24
2018-12-09T14:03:33.026Z,98881.53
2018-12-09T14:06:00.974Z,98883.98
2018-12-09T14:08:28.561Z,98882.84
2018-12-09T14:10:56.244Z,98894.48
2018-12-09T14:13:24.254Z,98895.62
2018-12-09T14:15:51.867Z,98888.16
2018-12-09T14:18:19.581Z,98885.20
2018-12-09T14:20:47.248Z,98884.48
2018-12-09T14:23:15.020Z,98891.64
2018-12-09T14:25:42.881Z,98886.64
2018-12-09T14:28:10.740Z,98895.52
2018-12-09T14:30:38.311Z,98894.81
2018-12-09T14:33:06.013Z,98898.38
2018-12-09T14:35:33.583Z,98906.45
2018-12-09T14:38:01.525Z,98904.70
2018-12-09T14:40:29.368Z,98901.34
2018-12-09T14:42:56.952Z,98908.59
2018-12-09T14:45:24.627Z,98907.47
2018-12-09T14:47:52.182Z,98917.89
2018-12-09T14:50:19.762Z,98920.86
2018-12-09T14:52:47.321Z,98919.50
2018-12-09T14:55:14.911Z,98914.93
2018-12-09T14:57:42.509Z,98927.70
2018-12-09T15:00:10.307Z,98927.16
2018-12-09T15:02:37.892Z,98930.55
2018-12-09T15:05:05.950Z,98933.09
2018-12-09T15:07:33.534Z,98938.59
2018-12-09T15:10:08.412Z,98934.41
2018-12-09T15:12:31.121Z,98935.04
2018-12-09T15:14:58.745Z,98938.79
2018-12-09T15:17:28.260Z,98945.15
2018-12-09T15:19:55.862Z,98956.16
2018-12-09T15:22:23.418Z,98948.50
2018-12-09T15:24:51.072Z,98954.20
2018-12-09T15:27:18.664Z,98962.09
2018-12-09T15:29:46.353Z,98959.13
2018-12-09T15:32:14.008Z,98961.57
2018-12-09T15:34:41.545Z,98968.41
2018-12-09T15:37:09.162Z,98964.73
2018-12-09T15:39:36.730Z,98970.45
2018-12-09T15:42:04.377Z,98972.70
2018-12-09T15:44:31.964Z,98977.91
2018-12-09T15:46:59.908Z,98978.13
2018-12-09T15:49:28.405Z,98978.33
2018-12-09T15:51:56.214Z,98972.00
2018-12-09T15:54:24.075Z,98970.25
2018-12-09T15:56:51.691Z,98982.12
2018-12-09T15:59:20.858Z,98986.48
2018-12-09T16:01:49.200Z,98988.83
2018-12-09T16:04:16.766Z,98987.42
2018-12-09T16:06:44.489Z,98988.52
2018-12-09T16:09:12.325Z,98993.32
2018-12-09T16:11:39.932Z,98995.16
2018-12-09T16:14:07.600Z,98993.83
2018-12-09T16:16:35.396Z,98988.52
2018-12-09T16:19:02.995Z,98999.95
2018-12-09T16:21:30.576Z,99001.79
2018-12-09T16:23:58.136Z,99005.27
2018-12-09T16:26:25.706Z,99005.58
2018-12-09T16:28:53.317Z,99014.16
2018-12-09T16:31:20.921Z,99020.80
2018-12-09T16:33:48.841Z,99013.02
2018-12-09T16:36:16.474Z,99028.63
2018-12-09T16:38:44.355Z,99034.84
2018-12-09T16:41:11.966Z,99024.45
2018-12-09T16:43:39.674Z,99032.29
2018-12-09T16:46:07.307Z,99037.11
2018-12-09T16:48:34.982Z,99043.11
2018-12-09T16:51:03.370Z,99035.39
2018-12-09T16:53:31.015Z,99045.06
2018-12-09T16:55:58.595Z,99049.44
2018-12-09T16:58:26.226Z,99058.66
2018-12-09T17:00:53.828Z,99045.89
2018-12-09T17:03:21.471Z,99055.35
2018-12-09T17:05:49.357Z,99062.50
2018-12-09T17:08:16.928Z,99064.33
2018-12-09T17:10:44.552Z,99074.75
2018-12-09T17:13:12.477Z,99084.76
2018-12-09T17:15:40.080Z,99093.52
2018-12-09T17:18:08.219Z,99083.34
2018-12-09T17:20:35.832Z,99094.48
2018-12-09T17:23:03.449Z,99092.84
2018-12-09T17:25:31.179Z,99099.97
2018-12-09T17:27:58.775Z,99116.03
2018-12-09T17:30:26.428Z,99113.77
2018-12-09T17:32:53.976Z,99121.94
2018-12-09T17:35:21.628Z,99131.02
2018-12-09T17:37:49.214Z,99133.72
2018-12-09T17:40:16.829Z,99130.84
2018-12-09T17:42:44.499Z,99132.55
2018-12-09T17:45:12.108Z,99137.75
2018-12-09T17:47:39.767Z,99146.08
2018-12-09T17:50:08.454Z,99145.90
2018-12-09T17:52:36.087Z,99148.43
2018-12-09T17:55:03.836Z,99156.33
2018-12-09T17:57:31.951Z,99169.56
2018-12-09T18:00:00.049Z,99172.47
2018-12-09T18:02:27.688Z,99176.30
2018-12-09T18:04:55.316Z,99182.73
2018-12-09T18:07:22.967Z,99176.89
2018-12-09T18:09:50.796Z,99187.41
2018-12-09T18:12:18.374Z,99189.50
2018-12-09T18:14:46.043Z,99196.92
2018-12-09T18:17:14.037Z,99207.06
2018-12-09T18:19:41.807Z,99213.80
2018-12-09T18:22:09.608Z,99212.47
2018-12-09T18:24:37.333Z,99216.64
2018-12-09T18:27:04.938Z,99214.30
2018-12-09T18:29:32.659Z,99206.09
2018-12-09T18:32:00.671Z,99216.57
2018-12-09T18:34:28.340Z,99218.59
2018-12-09T18:36:56.347Z,99219.23
2018-12-09T18:39:24.091Z,99216.10
2018-12-09T18:41:52.094Z,99228.21
2018-12-09T18:44:19.997Z,99226.02
2018-12-09T18:46:47.666Z,99230.64
2018-12-09T18:49:15.426Z,99234.94
2018-12-09T18:51:43.036Z,99238.47
2018-12-09T18:54:10.614Z,99235.41
2018-12-09T18:56:38.235Z,99260.48
2018-12-09T18:59:05.886Z,99265.16
2018-12-09T19:01:33.844Z,99265.61
2018-12-09T19:04:01.472Z,99273.08
2018-12-09T19:06:29.101Z,99262.46
2018-12-09T19:08:56.933Z,99264.74
2018-12-09T19:11:24.622Z,99271.29
2018-12-09T19:13:52.695Z,99273.98
2018-12-09T19:16:20.324Z,99287.30
2018-12-09T19:18:48.093Z,99273.88
2018-12-09T19:21:15.832Z,99285.13
2018-12-09T19:23:43.566Z,99284.53
2018-12-09T19:26:11.134Z,99302.16
2018-12-09T19:28:38.779Z,99304.09
2018-12-09T19:31:06.394Z,99310.16
2018-12-09T19:33:34.160Z,99305.82
2018-12-09T19:36:01.832Z,99315.94
2018-12-09T19:38:30.341Z,99320.24
2018-12-09T19:40:58.154Z,99330.22
2018-12-09T19:43:26.365Z,99332.38
2018-12-09T19:45:54.309Z,99331.41
2018-12-09T19:48:22.081Z,99332.50
2018-12-09T19:50:49.839Z,99337.99
2018-12-09T19:53:17.836Z,99338.31
2018-12-09T19:55:45.626Z,99340.28
2018-12-09T19:58:13.202Z,99347.98
2018-12-09T20:00:40.940Z,99346.97
2018-12-09T20:03:08.581Z,99358.96
2018-12-09T20:05:36.205Z,99367.87
2018-12-09T20:08:03.811Z,99364.41
2018-12-09T20:10:31.689Z,99367.94
2018-12-09T20:12:59.315Z,99370.35
2018-12-09T20:15:27.031Z,99390.20
2018-12-09T20:17:54.658Z,99385.34
2018-12-09T20:20:22.301Z,99378.72
2018-12-09T20:22:49.901Z,99384.27
2018-12-09T20:25:17.637Z,99397.30
2018-12-09T20:27:45.973Z,99402.78
2018-12-09T20:30:13.522Z,99408.41
2018-12-09T20:32:41.080Z,99411.81
2018-12-09T20:35:08.641Z,99398.78
2018-12-09T20:37:36.405Z,99421.28
2018-12-09T20:40:04.331Z,99425.77
2018-12-09T20:42:31.949Z,99434.12
2018-12-09T20:44:59.562Z,99432.16
2018-12-09T20:47:27.127Z,99443.98
2018-12-09T20:49:54.785Z,99443.02
2018-12-09T20:52:22.483Z,99436.21
2018-12-09T20:54:50.354Z,99459.46
2018-12-09T20:57:18.001Z,99455.80
2018-12-09T20:59:45.925Z,99462.04
2018-12-09T21:02:13.490Z,99457.37
2018-12-09T21:04:41.048Z,99476.03
2018-12-09T21:07:08.681Z,99486.45
2018-12-09T21:09:36.247Z,99481.34
2018-12-09T21:12:03.916Z,99487.53
2018-12-09T21:14:31.550Z,99493.71
2018-12-09T21:16:59.196Z,99512.55
2018-12-09T21:19:26.786Z,99493.58
2018-12-09T21:21:54.645Z,99508.57
2018-12-09T21:24:25.755Z,99519.55
2018-12-09T21:26:52.304Z,99506.78
2018-12-09T21:29:19.907Z,99519.23
2018-12-09T21:31:47.548Z,99523.54
2018-12-09T21:34:15.227Z,99519.38
2018-12-09T21:36:43.088Z,99530.28
2018-12-09T21:39:10.848Z,99540.25
2018-12-09T21:41:38.803Z,99546.28
2018-12-09T21:44:06.487Z,99553.92
2018-12-09T21:46:34.050Z,99557.90
2018-12-09T21:49:01.729Z,99559.37
2018-12-09T21:51:29.357Z,99571.38
2018-12-09T21:53:57.877Z,99566.65
2018-12-09T21:56:25.593Z,99569.88
2018-12-09T21:58:53.293Z,99584.88
2018-12-09T22:01:20.938Z,99585.16
2018-12-09T22:03:48.553Z,99585.59
2018-12-09T22:06:16.135Z,99610.20
2018-12-09T22:08:43.812Z,99590.72
2018-12-09T22:11:11.397Z,99597.25
2018-12-09T22:13:39.041Z,99614.03
2018-12-09T22:16:06.618Z,99621.39
2018-12-09T22:18:34.198Z,99625.22
2018-12-09T22:21:01.876Z,99629.13
2018-12-09T22:23:29.580Z,99631.23
2018-12-09T22:25:57.336Z,99635.37
2018-12-09T22:28:25.043Z,99645.55
2018-12-09T22:30:52.821Z,99644.89
2018-12-09T22:33:20.564Z,99651.11
2018-12-09T22:35:48.105Z,99654.09
2018-12-09T22:38:15.705Z,99658.31
2018-12-09T22:40:43.400Z,99665.36
2018-12-09T22:43:11.231Z,99659.72
2018-12-09T22:45:38.826Z,99675.67
2018-12-09T22:48:06.458Z,99679.84
2018-12-09T22:50:34.414Z,99686.35
2018-12-09T22:53:01.997Z,99694.25
2018-12-09T22:55:29.604Z,99694.58
2018-12-09T22:57:57.193Z,99697.23
2018-12-09T23:00:25.835Z,99714.83
2018-12-09T23:02:59.007Z,99704.09
2018-12-09T23:05:26.586Z,99706.69
2018-12-09T23:07:54.758Z,99707.77
2018-12-09T23:10:22.809Z,99720.03
2018-12-09T23:12:53.173Z,99723.07
2018-12-09T23:15:20.958Z,99733.38
2018-12-09T23:17:49.194Z,99742.66
2018-12-09T23:20:17.251Z,99733.26
2018-12-09T23:22:44.903Z,99749.00
2018-12-09T23:25:12.541Z,99758.23
2018-12-09T23:27:40.180Z,99770.23
2018-12-09T23:30:08.189Z,99777.84
2018-12-09T23:32:35.823Z,99777.20
2018-12-09T23:35:03.544Z,99784.27
2018-12-09T23:37:31.893Z,99790.02
2018-12-09T23:39:59.506Z,99791.95
2018-12-09T23:42:27.062Z,99793.45
2018-12-09T23:44:54.656Z,99807.30
2018-12-09T23:47:22.440Z,99801.07
2018-12-09T23:49:50.021Z,99806.16
2018-12-09T23:52:17.663Z,99807.15
2018-12-09T23:54:45.252Z,99805.48
2018-12-09T23:57:12.803Z,99808.09
2018-12-09T23:59:40.446Z,99810.34
